sensor_id;sensor_type;location;lat;lon;timestamp;P1;durP1;ratioP1;P2;durP2;ratioP2
74064;SDS011;62421;51.412;5.432;2022-12-18T00:01:35;54.50;;;20.60;;
74064;SDS011;62421;51.412;5.432;2022-12-18T00:04:02;52.03;;;17.83;;
74064;SDS011;62421;51.412;5.432;2022-12-18T00:06:29;53.67;;;19.50;;
74064;SDS011;62421;51.412;5.432;2022-12-18T00:08:56;53.08;;;18.95;;
74064;SDS011;62421;51.412;5.432;2022-12-18T00:11:24;51.77;;;20.03;;
74064;SDS011;62421;51.412;5.432;2022-12-18T00:13:52;46.55;;;17.67;;
74064;SDS011;62421;51.412;5.432;2022-12-18T00:16:19;52.78;;;18.52;;
74064;SDS011;62421;51.412;5.432;2022-12-18T00:18:47;52.85;;;19.63;;
74064;SDS011;62421;51.412;5.432;2022-12-18T00:21:14;49.47;;;18.80;;
74064;SDS011;62421;51.412;5.432;2022-12-18T00:23:40;52.00;;;19.80;;
74064;SDS011;62421;51.412;5.432;2022-12-18T00:26:09;47.53;;;19.45;;
74064;SDS011;62421;51.412;5.432;2022-12-18T00:28:37;54.53;;;17.70;;
74064;SDS011;62421;51.412;5.432;2022-12-18T00:31:02;52.53;;;18.07;;
74064;SDS011;62421;51.412;5.432;2022-12-18T00:33:30;46.50;;;17.92;;
74064;SDS011;62421;51.412;5.432;2022-12-18T00:36:00;49.00;;;18.80;;
74064;SDS011;62421;51.412;5.432;2022-12-18T00:38:35;44.38;;;18.17;;
74064;SDS011;62421;51.412;5.432;2022-12-18T00:41:02;44.38;;;18.50;;
74064;SDS011;62421;51.412;5.432;2022-12-18T00:43:28;47.45;;;18.27;;
74064;SDS011;62421;51.412;5.432;2022-12-18T00:45:53;53.33;;;18.58;;
74064;SDS011;62421;51.412;5.432;2022-12-18T00:48:19;47.83;;;18.97;;
74064;SDS011;62421;51.412;5.432;2022-12-18T00:50:44;45.70;;;18.52;;
74064;SDS011;62421;51.412;5.432;2022-12-18T00:53:10;42.20;;;16.70;;
74064;SDS011;62421;51.412;5.432;2022-12-18T00:55:37;45.57;;;17.63;;
74064;SDS011;62421;51.412;5.432;2022-12-18T00:58:03;41.42;;;16.92;;
74064;SDS011;62421;51.412;5.432;2022-12-18T01:00:29;48.33;;;18.63;;
74064;SDS011;62421;51.412;5.432;2022-12-18T01:02:54;43.70;;;17.47;;
74064;SDS011;62421;51.412;5.432;2022-12-18T01:05:19;50.37;;;17.83;;
74064;SDS011;62421;51.412;5.432;2022-12-18T01:07:45;46.33;;;19.60;;
74064;SDS011;62421;51.412;5.432;2022-12-18T01:10:11;40.93;;;15.97;;
74064;SDS011;62421;51.412;5.432;2022-12-18T01:12:38;45.17;;;17.35;;
74064;SDS011;62421;51.412;5.432;2022-12-18T01:15:04;46.03;;;17.03;;
74064;SDS011;62421;51.412;5.432;2022-12-18T01:17:30;43.05;;;17.13;;
74064;SDS011;62421;51.412;5.432;2022-12-18T01:19:56;45.87;;;18.30;;
74064;SDS011;62421;51.412;5.432;2022-12-18T01:22:21;45.53;;;17.73;;
74064;SDS011;62421;51.412;5.432;2022-12-18T01:24:46;49.73;;;17.93;;
74064;SDS011;62421;51.412;5.432;2022-12-18T01:27:12;39.13;;;15.63;;
74064;SDS011;62421;51.412;5.432;2022-12-18T01:29:37;48.63;;;16.83;;
74064;SDS011;62421;51.412;5.432;2022-12-18T01:32:02;45.60;;;17.17;;
74064;SDS011;62421;51.412;5.432;2022-12-18T01:34:28;51.53;;;17.60;;
74064;SDS011;62421;51.412;5.432;2022-12-18T01:36:53;42.00;;;17.53;;
74064;SDS011;62421;51.412;5.432;2022-12-18T01:39:18;41.80;;;15.60;;
74064;SDS011;62421;51.412;5.432;2022-12-18T01:41:44;39.63;;;16.13;;
74064;SDS011;62421;51.412;5.432;2022-12-18T01:48:04;48.22;;;16.60;;
74064;SDS011;62421;51.412;5.432;2022-12-18T01:56:15;47.60;;;17.45;;
74064;SDS011;62421;51.412;5.432;2022-12-18T02:01:11;49.13;;;16.60;;
74064;SDS011;62421;51.412;5.432;2022-12-18T02:03:37;34.45;;;15.18;;
74064;SDS011;62421;51.412;5.432;2022-12-18T02:06:16;42.40;;;15.43;;
74064;SDS011;62421;51.412;5.432;2022-12-18T02:09:19;43.47;;;16.35;;
74064;SDS011;62421;51.412;5.432;2022-12-18T02:14:29;54.35;;;16.48;;
74064;SDS011;62421;51.412;5.432;2022-12-18T02:17:18;49.50;;;16.98;;
74064;SDS011;62421;51.412;5.432;2022-12-18T02:27:22;42.88;;;16.63;;
74064;SDS011;62421;51.412;5.432;2022-12-18T02:29:50;40.50;;;16.17;;
74064;SDS011;62421;51.412;5.432;2022-12-18T02:32:19;34.10;;;14.90;;
74064;SDS011;62421;51.412;5.432;2022-12-18T02:34:49;39.37;;;15.60;;
74064;SDS011;62421;51.412;5.432;2022-12-18T02:37:16;35.25;;;14.73;;
74064;SDS011;62421;51.412;5.432;2022-12-18T02:39:44;43.67;;;16.85;;
74064;SDS011;62421;51.412;5.432;2022-12-18T02:42:11;43.45;;;16.48;;
74064;SDS011;62421;51.412;5.432;2022-12-18T02:44:44;36.03;;;15.35;;
74064;SDS011;62421;51.412;5.432;2022-12-18T02:47:11;49.75;;;17.73;;
74064;SDS011;62421;51.412;5.432;2022-12-18T03:03:07;47.90;;;15.95;;
74064;SDS011;62421;51.412;5.432;2022-12-18T03:05:43;47.38;;;16.60;;
74064;SDS011;62421;51.412;5.432;2022-12-18T03:10:45;42.05;;;14.57;;
74064;SDS011;62421;51.412;5.432;2022-12-18T03:13:31;43.50;;;15.18;;
74064;SDS011;62421;51.412;5.432;2022-12-18T03:16:00;33.67;;;14.90;;
74064;SDS011;62421;51.412;5.432;2022-12-18T03:21:04;43.42;;;16.60;;
74064;SDS011;62421;51.412;5.432;2022-12-18T03:23:35;33.38;;;14.10;;
74064;SDS011;62421;51.412;5.432;2022-12-18T03:26:06;36.20;;;15.27;;
74064;SDS011;62421;51.412;5.432;2022-12-18T03:28:38;39.38;;;15.20;;
74064;SDS011;62421;51.412;5.432;2022-12-18T03:31:10;35.22;;;13.07;;
74064;SDS011;62421;51.412;5.432;2022-12-18T03:33:40;36.08;;;15.05;;
74064;SDS011;62421;51.412;5.432;2022-12-18T03:36:11;36.60;;;14.32;;
74064;SDS011;62421;51.412;5.432;2022-12-18T03:38:36;31.40;;;13.52;;
74064;SDS011;62421;51.412;5.432;2022-12-18T03:41:37;37.03;;;14.80;;
74064;SDS011;62421;51.412;5.432;2022-12-18T03:49:36;27.02;;;12.93;;
74064;SDS011;62421;51.412;5.432;2022-12-18T03:54:42;36.27;;;13.23;;
74064;SDS011;62421;51.412;5.432;2022-12-18T03:57:09;30.25;;;14.40;;
74064;SDS011;62421;51.412;5.432;2022-12-18T03:59:39;33.95;;;13.38;;
74064;SDS011;62421;51.412;5.432;2022-12-18T04:02:06;37.30;;;14.97;;
74064;SDS011;62421;51.412;5.432;2022-12-18T04:04:33;31.88;;;12.93;;
74064;SDS011;62421;51.412;5.432;2022-12-18T04:07:00;32.28;;;13.13;;
74064;SDS011;62421;51.412;5.432;2022-12-18T04:09:26;31.87;;;13.30;;
74064;SDS011;62421;51.412;5.432;2022-12-18T04:11:53;34.38;;;12.23;;
74064;SDS011;62421;51.412;5.432;2022-12-18T04:14:18;33.20;;;13.33;;
74064;SDS011;62421;51.412;5.432;2022-12-18T04:16:45;37.85;;;14.35;;
74064;SDS011;62421;51.412;5.432;2022-12-18T04:19:10;33.03;;;13.50;;
74064;SDS011;62421;51.412;5.432;2022-12-18T04:21:35;34.53;;;12.90;;
74064;SDS011;62421;51.412;5.432;2022-12-18T04:24:00;29.63;;;12.47;;
74064;SDS011;62421;51.412;5.432;2022-12-18T04:26:26;34.23;;;12.93;;
74064;SDS011;62421;51.412;5.432;2022-12-18T04:28:51;30.93;;;12.10;;
74064;SDS011;62421;51.412;5.432;2022-12-18T04:31:16;34.00;;;13.63;;
74064;SDS011;62421;51.412;5.432;2022-12-18T04:33:42;26.30;;;12.10;;
74064;SDS011;62421;51.412;5.432;2022-12-18T04:36:07;34.23;;;12.63;;
74064;SDS011;62421;51.412;5.432;2022-12-18T04:38:32;28.83;;;12.43;;
74064;SDS011;62421;51.412;5.432;2022-12-18T04:40:58;29.73;;;12.90;;
74064;SDS011;62421;51.412;5.432;2022-12-18T04:43:23;27.15;;;11.63;;
74064;SDS011;62421;51.412;5.432;2022-12-18T04:45:48;30.73;;;12.57;;
74064;SDS011;62421;51.412;5.432;2022-12-18T04:48:14;31.43;;;13.30;;
74064;SDS011;62421;51.412;5.432;2022-12-18T04:50:39;32.00;;;11.97;;
74064;SDS011;62421;51.412;5.432;2022-12-18T04:53:04;28.90;;;12.73;;
74064;SDS011;62421;51.412;5.432;2022-12-18T04:55:30;30.23;;;13.00;;
74064;SDS011;62421;51.412;5.432;2022-12-18T04:57:55;23.00;;;11.43;;
74064;SDS011;62421;51.412;5.432;2022-12-18T05:00:21;32.70;;;12.50;;
74064;SDS011;62421;51.412;5.432;2022-12-18T05:02:46;32.27;;;13.00;;
74064;SDS011;62421;51.412;5.432;2022-12-18T05:05:11;28.08;;;11.05;;
74064;SDS011;62421;51.412;5.432;2022-12-18T05:07:37;26.08;;;10.57;;
74064;SDS011;62421;51.412;5.432;2022-12-18T05:10:02;31.25;;;11.82;;
74064;SDS011;62421;51.412;5.432;2022-12-18T05:12:28;34.17;;;12.37;;
74064;SDS011;62421;51.412;5.432;2022-12-18T05:14:53;33.27;;;12.30;;
74064;SDS011;62421;51.412;5.432;2022-12-18T05:17:19;28.60;;;11.23;;
74064;SDS011;62421;51.412;5.432;2022-12-18T05:19:44;28.50;;;12.23;;
74064;SDS011;62421;51.412;5.432;2022-12-18T05:22:10;28.93;;;12.40;;
74064;SDS011;62421;51.412;5.432;2022-12-18T05:24:36;27.35;;;11.45;;
74064;SDS011;62421;51.412;5.432;2022-12-18T05:27:01;30.60;;;12.83;;
74064;SDS011;62421;51.412;5.432;2022-12-18T05:29:27;31.93;;;11.93;;
74064;SDS011;62421;51.412;5.432;2022-12-18T05:31:52;27.70;;;12.73;;
74064;SDS011;62421;51.412;5.432;2022-12-18T05:34:18;31.67;;;11.95;;
74064;SDS011;62421;51.412;5.432;2022-12-18T05:36:43;24.60;;;11.43;;
74064;SDS011;62421;51.412;5.432;2022-12-18T05:39:08;37.70;;;11.73;;
74064;SDS011;62421;51.412;5.432;2022-12-18T05:41:34;24.63;;;11.03;;
74064;SDS011;62421;51.412;5.432;2022-12-18T05:43:59;31.50;;;12.33;;
74064;SDS011;62421;51.412;5.432;2022-12-18T05:46:25;27.07;;;12.27;;
74064;SDS011;62421;51.412;5.432;2022-12-18T05:48:50;23.70;;;11.75;;
74064;SDS011;62421;51.412;5.432;2022-12-18T05:51:17;23.13;;;10.90;;
74064;SDS011;62421;51.412;5.432;2022-12-18T05:53:45;24.08;;;9.75;;
74064;SDS011;62421;51.412;5.432;2022-12-18T05:56:12;28.63;;;11.13;;
74064;SDS011;62421;51.412;5.432;2022-12-18T05:58:44;27.15;;;10.93;;
74064;SDS011;62421;51.412;5.432;2022-12-18T06:01:13;28.67;;;11.57;;
74064;SDS011;62421;51.412;5.432;2022-12-18T06:03:42;29.25;;;11.07;;
74064;SDS011;62421;51.412;5.432;2022-12-18T06:06:17;28.00;;;11.25;;
74064;SDS011;62421;51.412;5.432;2022-12-18T06:08:45;31.13;;;12.20;;
74064;SDS011;62421;51.412;5.432;2022-12-18T06:11:10;31.52;;;12.70;;
74064;SDS011;62421;51.412;5.432;2022-12-18T06:13:36;31.83;;;11.23;;
74064;SDS011;62421;51.412;5.432;2022-12-18T06:16:03;27.60;;;10.77;;
74064;SDS011;62421;51.412;5.432;2022-12-18T06:18:32;24.58;;;10.90;;
74064;SDS011;62421;51.412;5.432;2022-12-18T06:20:58;26.77;;;11.63;;
74064;SDS011;62421;51.412;5.432;2022-12-18T06:23:25;25.17;;;11.70;;
74064;SDS011;62421;51.412;5.432;2022-12-18T06:25:50;28.50;;;11.73;;
74064;SDS011;62421;51.412;5.432;2022-12-18T06:28:16;25.60;;;12.40;;
74064;SDS011;62421;51.412;5.432;2022-12-18T06:30:45;39.22;;;13.13;;
74064;SDS011;62421;51.412;5.432;2022-12-18T06:33:11;22.43;;;9.93;;
74064;SDS011;62421;51.412;5.432;2022-12-18T06:35:36;33.57;;;10.93;;
74064;SDS011;62421;51.412;5.432;2022-12-18T06:38:02;28.20;;;11.43;;
74064;SDS011;62421;51.412;5.432;2022-12-18T06:40:27;29.25;;;10.50;;
74064;SDS011;62421;51.412;5.432;2022-12-18T06:42:53;24.63;;;10.23;;
74064;SDS011;62421;51.412;5.432;2022-12-18T06:45:18;25.20;;;10.43;;
74064;SDS011;62421;51.412;5.432;2022-12-18T06:47:43;27.27;;;11.97;;
74064;SDS011;62421;51.412;5.432;2022-12-18T06:50:09;29.20;;;11.90;;
74064;SDS011;62421;51.412;5.432;2022-12-18T06:52:34;30.65;;;11.65;;
74064;SDS011;62421;51.412;5.432;2022-12-18T06:54:59;21.93;;;9.50;;
74064;SDS011;62421;51.412;5.432;2022-12-18T06:57:25;25.83;;;9.13;;
74064;SDS011;62421;51.412;5.432;2022-12-18T06:59:51;26.70;;;11.13;;
74064;SDS011;62421;51.412;5.432;2022-12-18T07:02:16;27.80;;;11.00;;
74064;SDS011;62421;51.412;5.432;2022-12-18T07:04:42;28.83;;;11.60;;
74064;SDS011;62421;51.412;5.432;2022-12-18T07:07:07;23.90;;;10.43;;
74064;SDS011;62421;51.412;5.432;2022-12-18T07:09:33;27.47;;;11.03;;
74064;SDS011;62421;51.412;5.432;2022-12-18T07:11:58;36.63;;;13.17;;
74064;SDS011;62421;51.412;5.432;2022-12-18T07:14:23;28.23;;;10.30;;
74064;SDS011;62421;51.412;5.432;2022-12-18T07:16:49;25.23;;;10.63;;
74064;SDS011;62421;51.412;5.432;2022-12-18T07:19:14;27.63;;;11.57;;
74064;SDS011;62421;51.412;5.432;2022-12-18T07:21:39;29.60;;;11.47;;
74064;SDS011;62421;51.412;5.432;2022-12-18T07:24:05;21.10;;;9.73;;
74064;SDS011;62421;51.412;5.432;2022-12-18T07:26:30;27.58;;;10.43;;
74064;SDS011;62421;51.412;5.432;2022-12-18T07:28:56;25.73;;;11.83;;
74064;SDS011;62421;51.412;5.432;2022-12-18T07:31:22;23.98;;;11.10;;
74064;SDS011;62421;51.412;5.432;2022-12-18T07:33:49;28.60;;;12.10;;
74064;SDS011;62421;51.412;5.432;2022-12-18T07:36:15;26.98;;;11.18;;
74064;SDS011;62421;51.412;5.432;2022-12-18T07:38:41;25.25;;;10.00;;
74064;SDS011;62421;51.412;5.432;2022-12-18T07:41:08;26.07;;;11.73;;
74064;SDS011;62421;51.412;5.432;2022-12-18T07:43:35;26.60;;;11.68;;
74064;SDS011;62421;51.412;5.432;2022-12-18T07:46:02;23.95;;;11.10;;
74064;SDS011;62421;51.412;5.432;2022-12-18T07:48:28;29.27;;;12.45;;
74064;SDS011;62421;51.412;5.432;2022-12-18T07:50:58;29.27;;;13.52;;
74064;SDS011;62421;51.412;5.432;2022-12-18T07:53:27;32.73;;;13.03;;
74064;SDS011;62421;51.412;5.432;2022-12-18T07:55:56;25.58;;;11.38;;
74064;SDS011;62421;51.412;5.432;2022-12-18T07:58:22;31.60;;;13.77;;
74064;SDS011;62421;51.412;5.432;2022-12-18T08:00:48;27.77;;;12.15;;
74064;SDS011;62421;51.412;5.432;2022-12-18T08:03:13;35.87;;;13.70;;
74064;SDS011;62421;51.412;5.432;2022-12-18T08:05:38;31.63;;;13.00;;
74064;SDS011;62421;51.412;5.432;2022-12-18T08:08:04;36.03;;;13.47;;
74064;SDS011;62421;51.412;5.432;2022-12-18T08:10:29;33.47;;;13.87;;
74064;SDS011;62421;51.412;5.432;2022-12-18T08:12:55;32.03;;;13.17;;
74064;SDS011;62421;51.412;5.432;2022-12-18T08:15:20;27.30;;;12.37;;
74064;SDS011;62421;51.412;5.432;2022-12-18T08:17:45;41.60;;;14.77;;
74064;SDS011;62421;51.412;5.432;2022-12-18T08:20:11;33.28;;;14.32;;
74064;SDS011;62421;51.412;5.432;2022-12-18T08:22:37;27.47;;;11.93;;
74064;SDS011;62421;51.412;5.432;2022-12-18T08:25:04;28.73;;;13.15;;
74064;SDS011;62421;51.412;5.432;2022-12-18T08:27:29;33.50;;;12.93;;
74064;SDS011;62421;51.412;5.432;2022-12-18T08:29:55;38.50;;;13.73;;
74064;SDS011;62421;51.412;5.432;2022-12-18T08:32:20;30.08;;;13.70;;
74064;SDS011;62421;51.412;5.432;2022-12-18T08:34:46;32.90;;;13.47;;
74064;SDS011;62421;51.412;5.432;2022-12-18T08:37:11;30.03;;;13.80;;
74064;SDS011;62421;51.412;5.432;2022-12-18T08:39:36;26.17;;;11.90;;
74064;SDS011;62421;51.412;5.432;2022-12-18T08:42:02;31.73;;;13.73;;
74064;SDS011;62421;51.412;5.432;2022-12-18T08:44:45;29.33;;;12.87;;
74064;SDS011;62421;51.412;5.432;2022-12-18T08:47:11;33.57;;;13.77;;
74064;SDS011;62421;51.412;5.432;2022-12-18T08:49:36;35.73;;;15.00;;
74064;SDS011;62421;51.412;5.432;2022-12-18T08:52:02;34.77;;;14.10;;
74064;SDS011;62421;51.412;5.432;2022-12-18T08:54:27;34.05;;;15.07;;
74064;SDS011;62421;51.412;5.432;2022-12-18T08:56:53;34.42;;;14.38;;
74064;SDS011;62421;51.412;5.432;2022-12-18T08:59:19;34.97;;;15.07;;
74064;SDS011;62421;51.412;5.432;2022-12-18T09:01:44;31.40;;;14.00;;
74064;SDS011;62421;51.412;5.432;2022-12-18T09:04:11;33.90;;;14.15;;
74064;SDS011;62421;51.412;5.432;2022-12-18T09:06:36;36.10;;;14.50;;
74064;SDS011;62421;51.412;5.432;2022-12-18T09:09:02;36.50;;;14.85;;
74064;SDS011;62421;51.412;5.432;2022-12-18T09:11:29;32.03;;;15.00;;
74064;SDS011;62421;51.412;5.432;2022-12-18T09:13:56;38.28;;;15.25;;
74064;SDS011;62421;51.412;5.432;2022-12-18T09:16:22;32.78;;;14.48;;
74064;SDS011;62421;51.412;5.432;2022-12-18T09:18:49;27.80;;;13.77;;
74064;SDS011;62421;51.412;5.432;2022-12-18T09:21:18;38.87;;;15.60;;
74064;SDS011;62421;51.412;5.432;2022-12-18T09:23:49;37.17;;;13.52;;
74064;SDS011;62421;51.412;5.432;2022-12-18T09:26:15;28.52;;;13.32;;
74064;SDS011;62421;51.412;5.432;2022-12-18T09:28:41;45.53;;;16.40;;
74064;SDS011;62421;51.412;5.432;2022-12-18T09:31:07;36.40;;;15.15;;
74064;SDS011;62421;51.412;5.432;2022-12-18T09:33:34;34.30;;;15.20;;
74064;SDS011;62421;51.412;5.432;2022-12-18T09:36:01;33.80;;;14.88;;
74064;SDS011;62421;51.412;5.432;2022-12-18T09:38:28;31.38;;;15.98;;
74064;SDS011;62421;51.412;5.432;2022-12-18T09:40:55;30.97;;;14.13;;
74064;SDS011;62421;51.412;5.432;2022-12-18T09:43:29;37.60;;;15.45;;
74064;SDS011;62421;51.412;5.432;2022-12-18T09:46:01;35.00;;;14.07;;
74064;SDS011;62421;51.412;5.432;2022-12-18T09:48:36;32.70;;;13.80;;
74064;SDS011;62421;51.412;5.432;2022-12-18T09:53:55;35.70;;;15.67;;
74064;SDS011;62421;51.412;5.432;2022-12-18T09:56:24;21.00;;;10.77;;
74064;SDS011;62421;51.412;5.432;2022-12-18T09:58:57;31.65;;;13.15;;
74064;SDS011;62421;51.412;5.432;2022-12-18T10:01:24;32.53;;;13.60;;
74064;SDS011;62421;51.412;5.432;2022-12-18T10:03:52;36.03;;;14.85;;
74064;SDS011;62421;51.412;5.432;2022-12-18T10:16:47;36.20;;;15.38;;
74064;SDS011;62421;51.412;5.432;2022-12-18T10:22:02;38.33;;;15.05;;
74064;SDS011;62421;51.412;5.432;2022-12-18T10:27:16;38.38;;;16.17;;
74064;SDS011;62421;51.412;5.432;2022-12-18T10:29:46;35.58;;;16.35;;
74064;SDS011;62421;51.412;5.432;2022-12-18T10:32:15;39.58;;;16.08;;
74064;SDS011;62421;51.412;5.432;2022-12-18T10:34:50;31.85;;;16.08;;
74064;SDS011;62421;51.412;5.432;2022-12-18T10:37:17;37.30;;;17.20;;
74064;SDS011;62421;51.412;5.432;2022-12-18T10:39:45;39.75;;;16.55;;
74064;SDS011;62421;51.412;5.432;2022-12-18T10:42:18;36.10;;;16.40;;
74064;SDS011;62421;51.412;5.432;2022-12-18T10:44:44;35.58;;;16.48;;
74064;SDS011;62421;51.412;5.432;2022-12-18T10:47:12;42.93;;;17.70;;
74064;SDS011;62421;51.412;5.432;2022-12-18T10:49:49;42.60;;;17.90;;
74064;SDS011;62421;51.412;5.432;2022-12-18T10:52:18;44.60;;;17.95;;
74064;SDS011;62421;51.412;5.432;2022-12-18T10:54:50;48.08;;;19.98;;
74064;SDS011;62421;51.412;5.432;2022-12-18T10:57:37;39.92;;;17.05;;
74064;SDS011;62421;51.412;5.432;2022-12-18T11:00:24;39.67;;;16.52;;
74064;SDS011;62421;51.412;5.432;2022-12-18T11:02:54;42.83;;;17.33;;
74064;SDS011;62421;51.412;5.432;2022-12-18T11:05:28;42.23;;;17.53;;
74064;SDS011;62421;51.412;5.432;2022-12-18T11:07:56;40.38;;;18.60;;
74064;SDS011;62421;51.412;5.432;2022-12-18T11:10:32;39.70;;;18.55;;
74064;SDS011;62421;51.412;5.432;2022-12-18T11:13:14;38.50;;;16.73;;
74064;SDS011;62421;51.412;5.432;2022-12-18T11:15:46;47.53;;;19.27;;
74064;SDS011;62421;51.412;5.432;2022-12-18T11:20:50;36.65;;;17.20;;
74064;SDS011;62421;51.412;5.432;2022-12-18T11:23:18;43.20;;;18.48;;
74064;SDS011;62421;51.412;5.432;2022-12-18T11:25:50;41.30;;;17.67;;
74064;SDS011;62421;51.412;5.432;2022-12-18T11:28:25;35.35;;;17.40;;
74064;SDS011;62421;51.412;5.432;2022-12-18T11:31:17;34.70;;;14.80;;
74064;SDS011;62421;51.412;5.432;2022-12-18T11:33:44;39.28;;;17.38;;
74064;SDS011;62421;51.412;5.432;2022-12-18T11:36:35;41.45;;;16.52;;
74064;SDS011;62421;51.412;5.432;2022-12-18T11:39:12;36.83;;;16.40;;
74064;SDS011;62421;51.412;5.432;2022-12-18T11:41:52;36.22;;;15.45;;
74064;SDS011;62421;51.412;5.432;2022-12-18T11:44:47;35.88;;;16.17;;
74064;SDS011;62421;51.412;5.432;2022-12-18T11:47:22;35.90;;;16.48;;
74064;SDS011;62421;51.412;5.432;2022-12-18T11:49:55;32.75;;;15.02;;
74064;SDS011;62421;51.412;5.432;2022-12-18T11:52:26;39.95;;;17.02;;
74064;SDS011;62421;51.412;5.432;2022-12-18T11:55:07;33.50;;;15.40;;
74064;SDS011;62421;51.412;5.432;2022-12-18T12:00:19;40.00;;;16.20;;
74064;SDS011;62421;51.412;5.432;2022-12-18T12:22:38;34.10;;;15.52;;
74064;SDS011;62421;51.412;5.432;2022-12-18T12:25:23;37.37;;;17.10;;
74064;SDS011;62421;51.412;5.432;2022-12-18T12:30:51;38.88;;;18.08;;
74064;SDS011;62421;51.412;5.432;2022-12-18T12:39:01;36.05;;;15.73;;
74064;SDS011;62421;51.412;5.432;2022-12-18T12:41:31;38.08;;;17.83;;
74064;SDS011;62421;51.412;5.432;2022-12-18T12:44:42;33.28;;;15.73;;
74064;SDS011;62421;51.412;5.432;2022-12-18T12:47:19;37.08;;;16.75;;
74064;SDS011;62421;51.412;5.432;2022-12-18T12:49:48;37.47;;;17.35;;
74064;SDS011;62421;51.412;5.432;2022-12-18T12:52:15;38.30;;;15.93;;
74064;SDS011;62421;51.412;5.432;2022-12-18T12:54:47;37.03;;;14.88;;
74064;SDS011;62421;51.412;5.432;2022-12-18T12:57:16;36.70;;;15.95;;
74064;SDS011;62421;51.412;5.432;2022-12-18T13:05:06;32.67;;;14.98;;
74064;SDS011;62421;51.412;5.432;2022-12-18T13:07:47;34.40;;;15.98;;
74064;SDS011;62421;51.412;5.432;2022-12-18T13:24:22;33.92;;;15.45;;
74064;SDS011;62421;51.412;5.432;2022-12-18T13:26:48;45.30;;;16.10;;
74064;SDS011;62421;51.412;5.432;2022-12-18T13:29:17;39.97;;;15.87;;
74064;SDS011;62421;51.412;5.432;2022-12-18T13:32:15;32.38;;;15.73;;
74064;SDS011;62421;51.412;5.432;2022-12-18T13:34:45;33.13;;;15.18;;
74064;SDS011;62421;51.412;5.432;2022-12-18T13:39:57;34.65;;;15.10;;
74064;SDS011;62421;51.412;5.432;2022-12-18T13:48:15;30.05;;;14.93;;
74064;SDS011;62421;51.412;5.432;2022-12-18T13:50:53;31.65;;;14.15;;
74064;SDS011;62421;51.412;5.432;2022-12-18T13:53:30;41.28;;;16.77;;
74064;SDS011;62421;51.412;5.432;2022-12-18T13:56:24;33.40;;;14.70;;
74064;SDS011;62421;51.412;5.432;2022-12-18T13:59:13;29.98;;;15.02;;
74064;SDS011;62421;51.412;5.432;2022-12-18T14:01:44;41.35;;;15.60;;
74064;SDS011;62421;51.412;5.432;2022-12-18T14:07:12;31.60;;;14.95;;
74064;SDS011;62421;51.412;5.432;2022-12-18T14:12:40;29.92;;;14.43;;
74064;SDS011;62421;51.412;5.432;2022-12-18T14:20:28;32.40;;;13.90;;
74064;SDS011;62421;51.412;5.432;2022-12-18T14:22:55;31.73;;;14.67;;
74064;SDS011;62421;51.412;5.432;2022-12-18T14:25:23;37.65;;;14.88;;
74064;SDS011;62421;51.412;5.432;2022-12-18T14:27:51;33.00;;;15.38;;
74064;SDS011;62421;51.412;5.432;2022-12-18T14:33:04;32.75;;;14.70;;
74064;SDS011;62421;51.412;5.432;2022-12-18T14:35:35;34.60;;;14.65;;
74064;SDS011;62421;51.412;5.432;2022-12-18T14:40:54;34.03;;;15.57;;
74064;SDS011;62421;51.412;5.432;2022-12-18T14:43:29;30.33;;;14.13;;
74064;SDS011;62421;51.412;5.432;2022-12-18T14:45:57;33.88;;;14.18;;
74064;SDS011;62421;51.412;5.432;2022-12-18T14:48:34;34.38;;;15.02;;
74064;SDS011;62421;51.412;5.432;2022-12-18T14:51:06;33.65;;;15.25;;
74064;SDS011;62421;51.412;5.432;2022-12-18T14:53:48;30.02;;;13.93;;
74064;SDS011;62421;51.412;5.432;2022-12-18T14:56:23;28.90;;;13.20;;
74064;SDS011;62421;51.412;5.432;2022-12-18T14:58:55;32.42;;;14.10;;
74064;SDS011;62421;51.412;5.432;2022-12-18T15:01:29;29.80;;;13.00;;
74064;SDS011;62421;51.412;5.432;2022-12-18T15:03:57;30.33;;;13.77;;
74064;SDS011;62421;51.412;5.432;2022-12-18T15:06:28;31.83;;;14.68;;
74064;SDS011;62421;51.412;5.432;2022-12-18T15:08:55;30.00;;;13.50;;
74064;SDS011;62421;51.412;5.432;2022-12-18T15:11:28;33.27;;;14.63;;
74064;SDS011;62421;51.412;5.432;2022-12-18T15:14:20;32.38;;;14.85;;
74064;SDS011;62421;51.412;5.432;2022-12-18T15:16:56;35.42;;;14.40;;
74064;SDS011;62421;51.412;5.432;2022-12-18T15:19:25;30.17;;;14.52;;
74064;SDS011;62421;51.412;5.432;2022-12-18T15:22:19;33.27;;;13.03;;
74064;SDS011;62421;51.412;5.432;2022-12-18T15:24:49;33.58;;;14.63;;
74064;SDS011;62421;51.412;5.432;2022-12-18T15:32:34;31.83;;;13.55;;
74064;SDS011;62421;51.412;5.432;2022-12-18T15:37:41;29.85;;;13.82;;
74064;SDS011;62421;51.412;5.432;2022-12-18T15:40:08;31.25;;;12.40;;
74064;SDS011;62421;51.412;5.432;2022-12-18T15:42:37;31.27;;;14.43;;
74064;SDS011;62421;51.412;5.432;2022-12-18T15:45:21;33.10;;;14.15;;
74064;SDS011;62421;51.412;5.432;2022-12-18T15:47:46;29.43;;;14.13;;
74064;SDS011;62421;51.412;5.432;2022-12-18T15:50:12;31.50;;;13.83;;
74064;SDS011;62421;51.412;5.432;2022-12-18T15:52:41;32.23;;;14.37;;
74064;SDS011;62421;51.412;5.432;2022-12-18T15:55:18;28.23;;;13.65;;
74064;SDS011;62421;51.412;5.432;2022-12-18T15:58:04;34.75;;;14.10;;
74064;SDS011;62421;51.412;5.432;2022-12-18T16:00:31;38.80;;;16.25;;
74064;SDS011;62421;51.412;5.432;2022-12-18T16:02:59;33.10;;;14.07;;
74064;SDS011;62421;51.412;5.432;2022-12-18T16:05:25;28.90;;;14.25;;
74064;SDS011;62421;51.412;5.432;2022-12-18T16:07:51;29.13;;;13.50;;
74064;SDS011;62421;51.412;5.432;2022-12-18T16:10:17;36.93;;;15.37;;
74064;SDS011;62421;51.412;5.432;2022-12-18T16:12:42;39.45;;;14.73;;
74064;SDS011;62421;51.412;5.432;2022-12-18T16:15:10;32.53;;;14.23;;
74064;SDS011;62421;51.412;5.432;2022-12-18T16:17:38;30.52;;;15.07;;
74064;SDS011;62421;51.412;5.432;2022-12-18T16:20:04;30.98;;;13.60;;
74064;SDS011;62421;51.412;5.432;2022-12-18T16:22:31;30.85;;;14.80;;
74064;SDS011;62421;51.412;5.432;2022-12-18T16:24:56;32.53;;;14.80;;
74064;SDS011;62421;51.412;5.432;2022-12-18T16:27:22;35.30;;;15.77;;
74064;SDS011;62421;51.412;5.432;2022-12-18T16:29:49;37.28;;;15.68;;
74064;SDS011;62421;51.412;5.432;2022-12-18T16:32:18;33.63;;;15.07;;
74064;SDS011;62421;51.412;5.432;2022-12-18T16:34:46;30.50;;;13.07;;
74064;SDS011;62421;51.412;5.432;2022-12-18T16:37:13;32.35;;;14.43;;
74064;SDS011;62421;51.412;5.432;2022-12-18T16:39:39;32.92;;;15.43;;
74064;SDS011;62421;51.412;5.432;2022-12-18T16:42:06;39.78;;;17.13;;
74064;SDS011;62421;51.412;5.432;2022-12-18T16:44:39;32.40;;;14.83;;
74064;SDS011;62421;51.412;5.432;2022-12-18T16:47:05;34.15;;;15.13;;
74064;SDS011;62421;51.412;5.432;2022-12-18T16:49:30;28.10;;;14.40;;
74064;SDS011;62421;51.412;5.432;2022-12-18T16:51:56;32.07;;;15.83;;
74064;SDS011;62421;51.412;5.432;2022-12-18T16:54:21;39.45;;;15.23;;
74064;SDS011;62421;51.412;5.432;2022-12-18T16:56:47;30.07;;;14.00;;
74064;SDS011;62421;51.412;5.432;2022-12-18T16:59:14;33.83;;;15.60;;
74064;SDS011;62421;51.412;5.432;2022-12-18T17:01:40;33.45;;;14.30;;
74064;SDS011;62421;51.412;5.432;2022-12-18T17:04:05;32.70;;;14.40;;
74064;SDS011;62421;51.412;5.432;2022-12-18T17:06:33;33.55;;;15.23;;